Warrensburg, New York
Current Conditions -  °F | °C
As of 8:53 PM on Thursday 18 Dec 2014 (Local Time) from KGFL Reporting Station
Overcast Overcast  
Wind Chill: 29°   Ceiling: 2700
Heat Index: 34°   Visibility: 10mi
Dew Point: 25°   Wind: 6mph
Humidity: 70%   Direction: 290°WNW
Pressure: 29.93"   Gusts: NA
Location:  43.5°N, 73.78°W
Report Text: KGFL 190153Z AUTO 29005KT 10SM OVC027 01/M04 A2993 RMK AO2 SLP142 T00111039
Loading
Personal Weather Stations






























Interactive Weather Map New forecast layout! Learn more

10-Day Weather Forecast

Advertisements
Track Severe Weather on mobile